Flugplatz Ernzen (UL)

Hier findest Du alle Informationen zum Flugplatz Ernzen (UL).

Informationen für Piloten zum Flugplatz Ernzen

Hier findest Du alle relevanten Informationen, die Du als Pilot benötigst, um Ernzen anzufliegen.

Flugplatz: Ernzen ICAO-Code: UL Flugplatz
Frequenz Turm: 123,425 Mhz GAFOR Gebiet: -
Frequenz Ground: 123,425 Mhz Mogas: nein
Platzrunde: SO 750 ft Landegebühr: -
Platzhöhe: Sunrise: 04:27 Uhr UTC
Pisten: 06/24 - 500 m x 10 m, GRAS Sunset: 18:38 Uhr UTC

Mitglieder, die in Ernzen fliegen

Flugwetter am Flugplatz Ernzen

Die METAR Information stammen aus EDFH (60.76 km entfernt).

METAR Code:
2021/04/20 10:50
EDFH 201050Z VRB06KT 9999 SCT042 12/04 Q1017

Flugschulen am Flugplatz Ernzen

Am Flugplatz Ernzen gibt es leider keine Flugschule.

Benachbarte Flugplätze und Flugschulen

Es gibt 10 weitere Flugplätze in einem Umkreis von 50 km um den Flugplatz Ernzen.

Jetzt anmelden

Passwort vergessen

Umfrage Archiv

Seid Ihr aufgrund von Corona im Jahr 2020 mehr oder weniger geflogen als im Jahr zuvor?

weniger
53.8 %
gleich viel
29 %
mehr
17.2 %
Stimmen: 186 | Diskussion
Anzeige: Roland Aircraft
Statistik Alle Mitglieder

Aktuell sind 38 Besucher online, davon 2 Mitglieder und 36 Gäste.


Mitglieder online:
Chris_EDNC  b3nn0 

Anzeige: VFR Sprechfunk Simulator


Anzeige: Pocket FMS